Terminal Aerodrome Forecast
Issued by NWS Wilmington, OH

Home | Current Version | Previous Version | Text Only | Print | Product List | Glossary On
Versions: 1 2 3 4 5 6 7 8 9 10 11 12 13 14 15 16 17 18 19 20 21 22
000
FTUS41 KILN 300522
TAFDAY
TAF
KDAY 300522Z 3006/3106 VRB04KT P6SM BKN120
     FM300800 00000KT 3SM BR SCT002
      TEMPO 3009/3013 1SM BR BKN002
     FM301300 24006KT P6SM FEW008 SCT050
     FM301700 24006KT P6SM VCTS SCT040CB BKN250
     FM310000 24002KT P6SM FEW040=

USA.gov is the U.S. government's official web portal to all federal, state and local government web resources and services.